Aviation Digital Data Service (ADDS)

Output produced by METARs form (1039 UTC 19 January 2019)
found at http://www.aviationweather.gov/metar/data/
 
ELLX 191020Z 11008KT CAVOK M01/M04 Q1014 NOSIG
TAF ELLX 190500Z 1906/2012 12006KT CAVOK 
     PROB40 
     TEMPO 1906/1909 4500 BR SCT004 BKN005 
     BECMG 1919/1922 BKN010 
     TEMPO 2003/2009 4500 BR BKN003 
     BECMG 2009/2012 SCT020